San Luis County Regional Airport
KSBP : now visible

Airfield :











YOU CAN JOIN US ON...

 
LOGIN :

Register | Disclaimer

   EN    FR    IT 

 









Legend :    VFR   Marginal VFR   IFR   Intensive IFR   Very Intensive IFR
Visi :
Ceiling :
>= 8 km
>= 3000ft
5 to 8 km
1000 to 3000 ft
1500m to 5 km
500 to 1000 ft
800 to 1500m
200 to 500 ft
< 800m
< 200 ft
Symbols :   Thunderstorms  Fog  Heavy snow  Heavy precipitations  Wind > 20 kt







- Airport Elevation : 212 ft
- IATA code : SBP


KSBP - San Luis County Regional

CURRENT METAR :
  • 201856Z 18005KT 10SM OVC016 17/13 A2997 RMK AO2 SLP146 T01720128

EXPIRED METARs :
  • 201814Z 19006KT 10SM OVC016 17/13 A2997 RMK AO2 T01670128
  • 201756Z 19004KT 10SM OVC014 17/13 A2996 RMK AO2 SLP145 T01670128 10167 20139 50001
  • 201656Z 25005KT 10SM OVC014 16/13 A2997 RMK AO2 SLP146 T01560128

TAF KSBP
Valid from the 20 at 18:00 until the 21 at 18:00 UTC


201736Z 2018/2118 25004KT P6SM OVC014
FM202100 21007KT P6SM SCT020
FM210100 20005KT P6SM BKN017
FM210300 30006KT P6SM OVC015
FM210700 VRB03KT P6SM OVC008
FM211500 VRB03KT 3SM BR OVC008
KZLA FIR / North America



MET'MAP, your aeronautical weather chart ! - Copyright ORBIFLY December 2007 - Disclaimer

ORBIFLY MET'MAP TEAM :

Programming & Development : Alexandra Zaïnal
Concept & Development : Baudouin d'Aumeries
Co-Development & Prog : Marc-Olivier Méhu
Technical & hardware support : Manuel Goepfert

Contact : metmap@orbifly.com




SOURCES & CREDITS :

   NOAA       Earth
Advisory